METAR Data
IDs: Format: Raw Decoded Include TAF

Data at: 1950 UTC 17 Nov 2019

VTBD 171930Z 00000KT 9999 FEW030 27/22 Q1010 NOSIG
VTBD 171900Z 21006KT 9999 FEW030 26/23 Q1010 NOSIG
VTBD 171830Z 21006KT 9999 FEW030 27/23 Q1010 NOSIG
VTBD 171800Z 20005KT 9999 FEW030 27/22 Q1011 NOSIG
VTBD 171730Z 20004KT 9999 FEW030 27/22 Q1011 NOSIG
VTBD 171700Z 15002KT 9999 FEW030 27/22 Q1011 NOSIG
VTBD 171630Z 20003KT 9999 FEW030 27/22 Q1011 NOSIG
VTBD 171600Z 18003KT 9999 FEW030 27/22 Q1011 NOSIG
VTBD 171530Z 20004KT 9999 FEW030 27/21 Q1011 NOSIG
VTBD 171500Z 20003KT 9999 FEW030 28/21 Q1011 NOSIG
VTBD 171430Z 20003KT 9999 FEW030 27/21 Q1011 NOSIG
VTBD 171400Z 18004KT 9999 FEW030 29/21 Q1011 NOSIG
VTBD 171330Z 17005KT 9999 FEW030 29/21 Q1011 NOSIG
VTBD 171300Z 19004KT 9999 FEW030 29/21 Q1011 NOSIG
VTBD 171230Z 20006KT 9000 FEW030 29/21 Q1010 NOSIG
VTBD 171200Z 22004KT 9000 FEW030 29/20 Q1010 NOSIG
VTBD 171130Z 20006KT 9000 FEW020 SCT050 30/20 Q1010 NOSIG
VTBD 171100Z 21005KT 9000 FEW020 SCT050 30/21 Q1009 NOSIG
VTBD 171030Z 21007KT 9000 FEW020 BKN050 31/21 Q1009 NOSIG
VTBD 171000Z 20007KT 9000 FEW020 BKN050 32/21 Q1009 NOSIG
VTBD 170930Z 19006KT 9000 FEW020 BKN050 32/21 Q1009 NOSIG
VTBD 170900Z 16007KT 9000 FEW020 BKN050 33/20 Q1009 NOSIG
VTBD 170830Z 17007KT 140V200 9000 FEW020 SCT050 33/22 Q1009 NOSIG
VTBD 170800Z 17005KT 150V210 9999 FEW030 SCT080 33/22 Q1009 NOSIG
VTBD 170730Z 20003KT 150V240 9999 FEW030 SCT080 34/20 Q1009 NOSIG
VTBD 170700Z VRB02KT 9999 SCT040 34/21 Q1009 NOSIG
VTBD 170630Z VRB02KT 9999 SCT040 34/21 Q1010 NOSIG
VTBD 170600Z VRB02KT 9999 SCT040 34/21 Q1010 NOSIG
VTBD 170530Z VRB03KT 9999 SCT040 34/22 Q1011 NOSIG
VTBD 170500Z 21003KT 140V290 9999 FEW035 33/22 Q1011 NOSIG
VTBD 170430Z VRB03KT 9999 FEW035 33/22 Q1012 NOSIG
VTBD 170400Z VRB03KT 9999 FEW035 33/22 Q1013 NOSIG
VTBD 170330Z VRB03KT CAVOK 31/23 Q1013 NOSIG
VTBD 170300Z VRB02KT CAVOK 31/23 Q1013 NOSIG
VTBD 170230Z VRB03KT 9000 NSC 30/23 Q1013 NOSIG
VTBD 170200Z VRB01KT 8000 NSC 29/24 Q1013 NOSIG
VTBD 170130Z 12003KT 060V170 7000 NSC 28/24 Q1013 NOSIG
VTBD 170100Z 00000KT 6000 NSC 28/24 Q1012 NOSIG
VTBD 170030Z 00000KT 4900 BR NSC 26/24 Q1012 NOSIG
VTBD 170000Z 00000KT 4900 BR NSC 25/24 Q1012 NOSIG
VTBD 162330Z 00000KT 4900 BR NSC 25/24 Q1012 NOSIG
VTBD 162300Z 07003KT 7000 NSC 25/23 Q1011 NOSIG
VTBD 162230Z 06003KT CAVOK 25/23 Q1011 NOSIG
VTBD 162200Z 09003KT CAVOK 26/23 Q1011 NOSIG
VTBD 162130Z 00000KT CAVOK 26/23 Q1011 NOSIG
VTBD 162100Z VRB03KT CAVOK 27/23 Q1011 NOSIG
VTBD 162030Z 00000KT CAVOK 26/23 Q1011 NOSIG
VTBD 162000Z 19003KT 9999 FEW020 27/23 Q1011 NOSIG
VTBD 161930Z 00000KT 9999 FEW020 26/23 Q1011 NOSIG
VTBD 161900Z 19004KT 9999 FEW020 27/23 Q1011 NOSIG
VTBD 161830Z 00000KT 9999 FEW020 26/23 Q1011 NOSIG
VTBD 161800Z 19004KT 9999 FEW020 27/23 Q1011 NOSIG
VTBD 161730Z 17002KT 9999 FEW020 27/23 Q1012 NOSIG
VTBD 161700Z 19003KT 9999 FEW020 27/22 Q1012 NOSIG
VTBD 161630Z 18004KT 9999 FEW020 28/21 Q1012 NOSIG
VTBD 161600Z 22006KT 9999 FEW020 27/21 Q1012 NOSIG
VTBD 161530Z 21006KT 9999 FEW020 28/21 Q1012 NOSIG
VTBD 161500Z 21005KT 9999 FEW020 28/21 Q1012 NOSIG
VTBD 161430Z 21006KT 160V260 9999 FEW020 SCT050 29/22 Q1012 NOSIG
VTBD 161400Z 25005KT 9999 FEW020 SCT050 30/21 Q1012 NOSIG
VTBD 161330Z 26006KT 240V300 9999 FEW020 SCT050 30/21 Q1012 NOSIG
VTBD 161300Z 34004KT 280V010 9999 FEW020 31/20 Q1011 NOSIG
VTBD 161230Z 01004KT 340V040 9999 FEW020 30/20 Q1011 NOSIG
VTBD 161200Z 00000KT 9999 FEW020 31/20 Q1010 NOSIG
VTBD 161130Z 12003KT 9999 FEW020 31/20 Q1010 NOSIG
VTBD 161100Z 13005KT 9999 FEW020 31/20 Q1010 NOSIG
VTBD 161030Z 14006KT 9999 FEW020 32/20 Q1010 NOSIG
VTBD 161000Z 12006KT 9999 FEW020 32/20 Q1009 NOSIG
VTBD 160930Z 12006KT 080V150 9999 FEW020 32/20 Q1009 NOSIG
VTBD 160900Z 13003KT 060V190 9999 FEW020 33/21 Q1009 NOSIG
VTBD 160830Z 11005KT 010V170 9999 FEW020 33/20 Q1009 NOSIG
VTBD 160800Z 08007KT 040V110 9999 FEW020 33/20 Q1009 NOSIG